Time;durP1;ratioP1;P1;durP2;ratioP2;P2;SDS_P1;SDS_P2;PMS_P1;PMS_P2;Temp;Humidity;BMP_temperature;BMP_pressure;BME280_temperature;BME280_humidity;BME280_pressure;Samples;Min_cycle;Max_cycle;Signal;HPM_P1;HPM_P2
2023/03/07 00:02:11;;;;;;;19.98;12.15;;;;;;;;;;5033272;28;20209;-68
2023/03/07 00:04:39;;;;;;;20.23;12.10;;;;;;;;;;5033401;28;20209;-67
2023/03/07 00:07:07;;;;;;;17.65;11.40;;;;;;;;;;5037142;28;20207;-66
2023/03/07 00:09:36;;;;;;;18.88;11.73;;;;;;;;;;5053745;28;20197;-67
2023/03/07 00:12:06;;;;;;;18.52;11.20;;;;;;;;;;5051970;28;20209;-67
2023/03/07 00:14:34;;;;;;;21.38;11.73;;;;;;;;;;5051548;28;20211;-67
2023/03/07 00:17:03;;;;;;;20.45;13.50;;;;;;;;;;5050394;28;20492;-67
2023/03/07 00:19:31;;;;;;;18.77;11.45;;;;;;;;;;5052640;28;20228;-67
2023/03/07 00:21:59;;;;;;;17.67;11.45;;;;;;;;;;5051693;28;20197;-67
2023/03/07 00:24:27;;;;;;;15.45;10.27;;;;;;;;;;5052479;28;20250;-67
2023/03/07 00:26:56;;;;;;;21.30;12.50;;;;;;;;;;5051187;28;20196;-66
2023/03/07 00:29:25;;;;;;;15.45;11.88;;;;;;;;;;5052252;28;20204;-66
2023/03/07 00:31:54;;;;;;;15.80;11.82;;;;;;;;;;5050516;28;20245;-67
2023/03/07 00:34:22;;;;;;;18.52;12.88;;;;;;;;;;5051975;28;20215;-67
2023/03/07 00:36:50;;;;;;;19.77;12.05;;;;;;;;;;5051000;28;20204;-67
2023/03/07 00:39:18;;;;;;;19.33;12.10;;;;;;;;;;5053342;28;20584;-67
2023/03/07 00:41:46;;;;;;;20.27;13.43;;;;;;;;;;5052859;28;20675;-67
2023/03/07 00:44:15;;;;;;;20.75;12.27;;;;;;;;;;5051615;28;20204;-67
2023/03/07 00:46:44;;;;;;;20.05;12.52;;;;;;;;;;5051763;28;20210;-67
2023/03/07 00:49:12;;;;;;;19.00;11.38;;;;;;;;;;5052790;28;20215;-67
2023/03/07 00:51:41;;;;;;;16.92;10.82;;;;;;;;;;5053075;28;20261;-67
2023/03/07 00:54:09;;;;;;;16.98;12.10;;;;;;;;;;5052006;28;20241;-67
2023/03/07 00:56:38;;;;;;;18.70;12.60;;;;;;;;;;5052442;28;20686;-67
2023/03/07 00:59:06;;;;;;;18.02;12.70;;;;;;;;;;5051233;28;20208;-67
2023/03/07 01:01:35;;;;;;;18.90;11.50;;;;;;;;;;5037129;28;20293;-67
2023/03/07 01:04:05;;;;;;;22.65;13.35;;;;;;;;;;5052654;28;20663;-67
2023/03/07 01:06:33;;;;;;;20.77;12.35;;;;;;;;;;5053470;28;20222;-67
2023/03/07 01:09:03;;;;;;;21.63;12.38;;;;;;;;;;5035050;28;20208;-67
2023/03/07 01:11:32;;;;;;;20.15;12.80;;;;;;;;;;5051421;28;20211;-67
2023/03/07 01:14:01;;;;;;;17.90;13.25;;;;;;;;;;5052245;28;20208;-67
2023/03/07 01:16:31;;;;;;;18.25;11.77;;;;;;;;;;5053383;28;20222;-67
2023/03/07 01:19:00;;;;;;;20.30;12.20;;;;;;;;;;5051603;28;20208;-65
2023/03/07 01:21:30;;;;;;;24.75;14.40;;;;;;;;;;5046631;28;20227;-65
2023/03/07 01:24:01;;;;;;;18.30;12.55;;;;;;;;;;5047425;28;20712;-68
2023/03/07 01:26:30;;;;;;;19.30;12.40;;;;;;;;;;5032641;28;20265;-68
2023/03/07 01:28:59;;;;;;;19.48;12.02;;;;;;;;;;5032157;28;20668;-67
2023/03/07 01:31:28;;;;;;;19.92;12.15;;;;;;;;;;5047522;28;20236;-67
2023/03/07 01:33:57;;;;;;;22.48;13.75;;;;;;;;;;5031250;28;20216;-67
2023/03/07 01:36:28;;;;;;;22.67;14.40;;;;;;;;;;5031594;28;20209;-67
2023/03/07 01:39:01;;;;;;;21.08;12.65;;;;;;;;;;5032784;28;20658;-67
2023/03/07 01:41:31;;;;;;;22.30;14.10;;;;;;;;;;5018546;28;20212;-67
2023/03/07 01:44:01;;;;;;;26.30;12.90;;;;;;;;;;5051343;28;20196;-67
2023/03/07 01:46:34;;;;;;;22.67;14.30;;;;;;;;;;5054449;28;20184;-67
2023/03/07 01:49:06;;;;;;;22.02;13.45;;;;;;;;;;5055762;28;20226;-67
2023/03/07 01:51:35;;;;;;;22.02;13.98;;;;;;;;;;5055425;28;20189;-67
2023/03/07 01:54:08;;;;;;;20.73;13.57;;;;;;;;;;5055178;28;20204;-67
2023/03/07 01:56:37;;;;;;;25.70;14.18;;;;;;;;;;5037537;28;20188;-67
2023/03/07 01:59:06;;;;;;;26.63;14.45;;;;;;;;;;5055371;28;20215;-67
2023/03/07 02:01:34;;;;;;;25.63;13.95;;;;;;;;;;5062288;28;20223;-70
2023/03/07 02:04:04;;;;;;;21.80;13.68;;;;;;;;;;5069067;28;20358;-71
2023/03/07 02:06:35;;;;;;;29.42;16.42;;;;;;;;;;5069125;28;20253;-71
2023/03/07 02:09:06;;;;;;;24.77;16.05;;;;;;;;;;5067975;28;20275;-71
2023/03/07 02:11:35;;;;;;;29.70;16.75;;;;;;;;;;5071009;28;20224;-71
2023/03/07 02:14:03;;;;;;;26.45;15.95;;;;;;;;;;5072343;28;20228;-71
2023/03/07 02:16:32;;;;;;;26.85;15.52;;;;;;;;;;5071469;28;20229;-71
2023/03/07 02:19:01;;;;;;;26.17;15.80;;;;;;;;;;5073220;28;20232;-71
2023/03/07 02:21:34;;;;;;;28.60;16.30;;;;;;;;;;5071596;28;20249;-71
2023/03/07 02:24:04;;;;;;;27.13;14.02;;;;;;;;;;5072383;28;20244;-71
2023/03/07 02:26:38;;;;;;;27.35;16.17;;;;;;;;;;5071209;28;20247;-71
2023/03/07 02:29:07;;;;;;;28.65;17.02;;;;;;;;;;5072925;28;20216;-71
2023/03/07 02:31:35;;;;;;;30.15;16.85;;;;;;;;;;5072093;28;20256;-72
2023/03/07 02:34:03;;;;;;;32.13;16.88;;;;;;;;;;5070556;28;20546;-76
2023/03/07 02:36:34;;;;;;;27.80;17.05;;;;;;;;;;5071955;28;20242;-71
2023/03/07 02:39:20;;;;;;;39.42;17.65;;;;;;;;;;5063269;28;20223;-70
2023/03/07 02:41:52;;;;;;;37.28;17.83;;;;;;;;;;5069912;28;20268;-71
2023/03/07 02:44:27;;;;;;;33.20;17.73;;;;;;;;;;5070650;28;20240;-71
2023/03/07 02:46:55;;;;;;;30.85;18.85;;;;;;;;;;5053024;28;20260;-71
2023/03/07 02:49:27;;;;;;;34.95;18.90;;;;;;;;;;5071866;28;20212;-71
2023/03/07 02:51:59;;;;;;;29.45;16.35;;;;;;;;;;5071153;28;20297;-71
2023/03/07 02:54:28;;;;;;;32.50;18.27;;;;;;;;;;5071927;28;20216;-71
2023/03/07 02:56:58;;;;;;;32.35;17.40;;;;;;;;;;5068162;28;20234;-71
2023/03/07 02:59:26;;;;;;;35.13;20.00;;;;;;;;;;5072211;28;20235;-71
2023/03/07 03:01:54;;;;;;;34.53;19.25;;;;;;;;;;5072411;28;20248;-71
2023/03/07 03:04:23;;;;;;;34.88;18.73;;;;;;;;;;5072444;28;20235;-70
2023/03/07 03:06:51;;;;;;;29.38;17.33;;;;;;;;;;5072555;28;20215;-70
2023/03/07 03:09:19;;;;;;;29.42;18.23;;;;;;;;;;5071547;28;20659;-71
2023/03/07 03:11:47;;;;;;;32.25;18.10;;;;;;;;;;5071986;28;20231;-71
2023/03/07 03:14:19;;;;;;;32.90;16.98;;;;;;;;;;5071292;28;20205;-71
2023/03/07 03:16:48;;;;;;;31.30;15.95;;;;;;;;;;5071407;28;20227;-71
2023/03/07 03:19:16;;;;;;;29.65;16.45;;;;;;;;;;5070574;28;20658;-72
2023/03/07 03:21:45;;;;;;;29.02;17.33;;;;;;;;;;5072600;28;20251;-71
2023/03/07 03:24:13;;;;;;;44.47;23.38;;;;;;;;;;5054721;28;20248;-71
2023/03/07 03:26:42;;;;;;;46.30;24.52;;;;;;;;;;5071046;28;20228;-71
2023/03/07 03:29:10;;;;;;;113.18;57.10;;;;;;;;;;5071304;28;20239;-70
2023/03/07 03:31:40;;;;;;;32.38;17.05;;;;;;;;;;5071184;28;20278;-70
2023/03/07 03:34:09;;;;;;;33.05;20.23;;;;;;;;;;5069958;28;20209;-70
2023/03/07 03:36:38;;;;;;;34.92;19.88;;;;;;;;;;5070498;28;20234;-69
2023/03/07 03:39:10;;;;;;;46.33;23.35;;;;;;;;;;5071585;28;20224;-70
2023/03/07 03:41:42;;;;;;;68.60;35.35;;;;;;;;;;5070155;28;20211;-69
2023/03/07 03:44:11;;;;;;;44.80;23.50;;;;;;;;;;5070026;28;20259;-70
2023/03/07 03:46:41;;;;;;;39.42;21.65;;;;;;;;;;5071394;28;20303;-69
2023/03/07 03:49:12;;;;;;;45.53;24.40;;;;;;;;;;5069862;28;20189;-69
2023/03/07 03:51:40;;;;;;;31.70;17.75;;;;;;;;;;5068865;28;20220;-69
2023/03/07 03:54:08;;;;;;;39.55;20.98;;;;;;;;;;5070557;28;20236;-69
2023/03/07 03:56:37;;;;;;;44.05;24.95;;;;;;;;;;5070259;28;20228;-69
2023/03/07 03:59:06;;;;;;;52.22;31.77;;;;;;;;;;5069817;28;20227;-70
2023/03/07 04:01:35;;;;;;;29.55;17.65;;;;;;;;;;5068247;28;20275;-69
2023/03/07 04:04:05;;;;;;;24.25;14.88;;;;;;;;;;5070550;28;20231;-69
2023/03/07 04:06:34;;;;;;;26.05;15.50;;;;;;;;;;5069868;28;20192;-70
2023/03/07 04:09:04;;;;;;;26.77;14.20;;;;;;;;;;5069488;28;20251;-69
2023/03/07 04:11:33;;;;;;;26.45;14.35;;;;;;;;;;5051559;28;20204;-69
2023/03/07 04:14:01;;;;;;;28.60;14.80;;;;;;;;;;5068738;28;20239;-69
2023/03/07 04:16:29;;;;;;;22.80;14.15;;;;;;;;;;5068433;28;20228;-69
2023/03/07 04:18:58;;;;;;;23.67;14.00;;;;;;;;;;5069859;28;20220;-69
2023/03/07 04:21:28;;;;;;;24.52;14.50;;;;;;;;;;5068768;28;20275;-70
2023/03/07 04:23:58;;;;;;;25.30;12.98;;;;;;;;;;5069180;28;20265;-71
2023/03/07 04:26:30;;;;;;;26.83;15.65;;;;;;;;;;5068430;28;20223;-71
2023/03/07 04:28:58;;;;;;;23.98;13.20;;;;;;;;;;5051576;28;20672;-71
2023/03/07 04:31:33;;;;;;;23.15;13.02;;;;;;;;;;5069553;28;20262;-70
2023/03/07 04:34:04;;;;;;;20.30;12.60;;;;;;;;;;5069366;28;20220;-70
2023/03/07 04:36:34;;;;;;;20.50;13.18;;;;;;;;;;5069114;28;20240;-70
2023/03/07 04:39:02;;;;;;;19.83;11.35;;;;;;;;;;5068798;28;20232;-70
2023/03/07 04:41:32;;;;;;;21.33;12.48;;;;;;;;;;5069258;28;20262;-70
2023/03/07 04:44:11;;;;;;;19.45;12.73;;;;;;;;;;5068918;28;20242;-70
2023/03/07 04:46:39;;;;;;;20.52;13.57;;;;;;;;;;5069538;28;20235;-70
2023/03/07 04:49:08;;;;;;;17.92;11.38;;;;;;;;;;5051790;28;20216;-70
2023/03/07 04:51:38;;;;;;;19.27;12.30;;;;;;;;;;5068078;28;20289;-70
2023/03/07 04:54:06;;;;;;;21.65;11.05;;;;;;;;;;5068817;28;20223;-71
2023/03/07 04:56:35;;;;;;;20.23;13.07;;;;;;;;;;5069282;28;20258;-70
2023/03/07 04:59:04;;;;;;;22.77;13.63;;;;;;;;;;5069141;28;20248;-74
2023/03/07 05:01:32;;;;;;;20.25;12.30;;;;;;;;;;5052082;28;20272;-70
2023/03/07 05:04:01;;;;;;;16.95;11.38;;;;;;;;;;5067854;28;20232;-71
2023/03/07 05:06:30;;;;;;;18.52;11.70;;;;;;;;;;5070152;28;20239;-70
2023/03/07 05:08:59;;;;;;;17.98;12.10;;;;;;;;;;5069630;28;20240;-70
2023/03/07 05:11:28;;;;;;;20.23;11.68;;;;;;;;;;5068855;28;20224;-69
2023/03/07 05:13:57;;;;;;;19.10;12.25;;;;;;;;;;5055421;28;20853;-69
2023/03/07 05:16:25;;;;;;;17.63;11.07;;;;;;;;;;5073776;28;20243;-70
2023/03/07 05:18:54;;;;;;;19.55;11.35;;;;;;;;;;5073082;28;20224;-70
2023/03/07 05:21:23;;;;;;;18.48;11.30;;;;;;;;;;5072752;28;20350;-70
2023/03/07 05:23:52;;;;;;;20.92;12.02;;;;;;;;;;5071836;28;20243;-70
2023/03/07 05:26:21;;;;;;;21.63;12.73;;;;;;;;;;5072644;28;20713;-70
2023/03/07 05:28:50;;;;;;;15.68;10.18;;;;;;;;;;5072775;28;20258;-70
2023/03/07 05:31:18;;;;;;;19.63;11.82;;;;;;;;;;5073027;28;20321;-70
2023/03/07 05:33:47;;;;;;;18.90;12.18;;;;;;;;;;5073212;28;20232;-70
2023/03/07 05:36:16;;;;;;;18.40;11.25;;;;;;;;;;5072975;28;20236;-70
2023/03/07 05:38:44;;;;;;;16.85;11.15;;;;;;;;;;5072248;28;20247;-70
2023/03/07 05:41:12;;;;;;;19.27;11.93;;;;;;;;;;5072618;28;20257;-70
2023/03/07 05:43:42;;;;;;;15.57;10.80;;;;;;;;;;5073430;28;20236;-70
2023/03/07 05:46:10;;;;;;;16.17;9.95;;;;;;;;;;5070657;28;20690;-69
2023/03/07 05:48:39;;;;;;;16.63;10.88;;;;;;;;;;5071896;28;20239;-70
2023/03/07 05:51:07;;;;;;;16.92;10.10;;;;;;;;;;5072575;28;20239;-70
2023/03/07 05:53:37;;;;;;;16.77;10.18;;;;;;;;;;5070947;28;20239;-70
2023/03/07 05:56:05;;;;;;;17.10;9.70;;;;;;;;;;5071379;28;20253;-70
2023/03/07 05:58:34;;;;;;;16.08;10.40;;;;;;;;;;5071122;28;20204;-70
2023/03/07 06:01:04;;;;;;;14.85;9.57;;;;;;;;;;5072094;28;20236;-70
2023/03/07 06:03:33;;;;;;;16.10;9.43;;;;;;;;;;5068721;28;20265;-71
2023/03/07 06:06:01;;;;;;;19.63;9.20;;;;;;;;;;5069476;28;20260;-71
2023/03/07 06:08:30;;;;;;;18.73;10.77;;;;;;;;;;5057904;28;20260;-70
2023/03/07 06:10:58;;;;;;;15.93;9.57;;;;;;;;;;5064722;28;20346;-70
2023/03/07 06:13:27;;;;;;;13.10;9.50;;;;;;;;;;5065187;28;20256;-70
2023/03/07 06:15:56;;;;;;;16.73;10.10;;;;;;;;;;5059912;28;20326;-70
2023/03/07 06:18:27;;;;;;;14.70;10.85;;;;;;;;;;5063507;28;20283;-70
2023/03/07 06:20:57;;;;;;;17.63;12.00;;;;;;;;;;5068720;28;20276;-70
2023/03/07 06:23:26;;;;;;;17.05;10.73;;;;;;;;;;5067486;28;20279;-70
2023/03/07 06:25:54;;;;;;;18.40;9.55;;;;;;;;;;5069289;28;20224;-70
2023/03/07 06:28:23;;;;;;;16.48;9.63;;;;;;;;;;5070229;28;20223;-70
2023/03/07 06:30:52;;;;;;;16.50;9.93;;;;;;;;;;5068662;28;20315;-73
2023/03/07 06:33:20;;;;;;;17.58;11.50;;;;;;;;;;5064616;28;20252;-70
2023/03/07 06:35:51;;;;;;;15.50;9.98;;;;;;;;;;5065701;28;20197;-70
2023/03/07 06:38:20;;;;;;;13.35;10.02;;;;;;;;;;5065947;28;20264;-70
2023/03/07 06:40:55;;;;;;;13.77;8.82;;;;;;;;;;5065416;28;20342;-70
2023/03/07 06:43:23;;;;;;;16.98;9.50;;;;;;;;;;5065325;28;20196;-71
2023/03/07 06:45:52;;;;;;;15.40;11.43;;;;;;;;;;5064827;28;20279;-74
2023/03/07 06:48:20;;;;;;;20.45;10.18;;;;;;;;;;5066995;28;20252;-70
2023/03/07 06:50:48;;;;;;;13.05;9.45;;;;;;;;;;5067070;28;20256;-70
2023/03/07 06:53:18;;;;;;;19.17;10.80;;;;;;;;;;5067944;28;20272;-70
2023/03/07 06:55:49;;;;;;;12.85;8.40;;;;;;;;;;5048053;28;20241;-70
2023/03/07 06:58:17;;;;;;;14.20;10.02;;;;;;;;;;5051985;28;20272;-69
2023/03/07 07:00:46;;;;;;;12.75;9.40;;;;;;;;;;5060375;28;20615;-69
2023/03/07 07:03:14;;;;;;;14.35;9.55;;;;;;;;;;5063571;28;20216;-69
2023/03/07 07:05:43;;;;;;;16.42;10.15;;;;;;;;;;5042354;28;20273;-69
2023/03/07 07:08:11;;;;;;;14.50;9.35;;;;;;;;;;5037998;28;20288;-66
2023/03/07 07:10:41;;;;;;;13.25;8.98;;;;;;;;;;5032866;28;20205;-66
2023/03/07 07:13:11;;;;;;;11.52;9.13;;;;;;;;;;5032526;28;20205;-67
2023/03/07 07:15:40;;;;;;;13.73;9.52;;;;;;;;;;5033858;28;20212;-66
2023/03/07 07:18:08;;;;;;;14.23;9.88;;;;;;;;;;5033575;28;20223;-66
2023/03/07 07:20:36;;;;;;;13.05;9.30;;;;;;;;;;5035005;28;20205;-66
2023/03/07 07:23:05;;;;;;;16.60;8.30;;;;;;;;;;5039970;28;20293;-65
2023/03/07 07:25:33;;;;;;;12.30;9.32;;;;;;;;;;5047854;28;20197;-65
2023/03/07 07:28:03;;;;;;;16.15;10.63;;;;;;;;;;5052326;28;20197;-65
2023/03/07 07:30:31;;;;;;;13.77;9.63;;;;;;;;;;5052155;28;20224;-65
2023/03/07 07:32:59;;;;;;;19.20;9.95;;;;;;;;;;5046992;28;20625;-66
2023/03/07 07:35:28;;;;;;;11.88;8.80;;;;;;;;;;5045789;28;20749;-65
2023/03/07 07:37:56;;;;;;;12.50;9.40;;;;;;;;;;5050446;28;20192;-65
2023/03/07 07:40:25;;;;;;;12.57;8.85;;;;;;;;;;5052311;28;20211;-65
2023/03/07 07:42:53;;;;;;;11.43;8.48;;;;;;;;;;5049582;28;20212;-65
2023/03/07 07:45:49;;;;;;;11.57;8.50;;;;;;;;;;5050621;28;20200;-65
2023/03/07 07:48:21;;;;;;;14.68;9.85;;;;;;;;;;5050565;28;20646;-66
2023/03/07 07:50:49;;;;;;;13.43;9.90;;;;;;;;;;5051930;28;20200;-66
2023/03/07 07:53:17;;;;;;;13.15;9.60;;;;;;;;;;5052394;28;20659;-66
2023/03/07 07:55:47;;;;;;;14.60;10.20;;;;;;;;;;5037040;28;20205;-66
2023/03/07 07:58:17;;;;;;;13.10;9.77;;;;;;;;;;5054150;28;20205;-66
2023/03/07 08:00:45;;;;;;;14.15;9.80;;;;;;;;;;5051575;28;20200;-65
2023/03/07 08:03:15;;;;;;;11.70;8.40;;;;;;;;;;5052583;28;20211;-67
2023/03/07 08:05:46;;;;;;;14.52;9.38;;;;;;;;;;5036314;28;20209;-65
2023/03/07 08:08:15;;;;;;;13.30;9.10;;;;;;;;;;5052580;28;20195;-65
2023/03/07 08:10:43;;;;;;;18.25;9.52;;;;;;;;;;5051406;28;20664;-66
2023/03/07 08:13:12;;;;;;;17.77;8.95;;;;;;;;;;5052492;28;20576;-66
2023/03/07 08:15:41;;;;;;;15.13;9.70;;;;;;;;;;5051452;28;20204;-67
2023/03/07 08:18:09;;;;;;;16.55;8.38;;;;;;;;;;5047467;28;20216;-66
2023/03/07 08:20:40;;;;;;;12.68;8.75;;;;;;;;;;5037673;28;20193;-68
2023/03/07 08:23:08;;;;;;;12.40;9.57;;;;;;;;;;5052287;28;20220;-69
2023/03/07 08:25:36;;;;;;;16.35;10.30;;;;;;;;;;5052969;28;20511;-67
2023/03/07 08:28:05;;;;;;;14.27;9.05;;;;;;;;;;5052434;28;20705;-67
2023/03/07 08:30:34;;;;;;;13.13;8.30;;;;;;;;;;5049767;28;20231;-67
2023/03/07 08:33:03;;;;;;;12.60;9.70;;;;;;;;;;5051014;28;20207;-66
2023/03/07 08:35:31;;;;;;;13.18;9.73;;;;;;;;;;5045892;28;20407;-67
2023/03/07 08:38:01;;;;;;;14.45;8.65;;;;;;;;;;5051834;28;20200;-67
2023/03/07 08:40:29;;;;;;;14.32;8.13;;;;;;;;;;5052485;28;20201;-65
2023/03/07 08:42:59;;;;;;;13.63;9.00;;;;;;;;;;5049470;28;20221;-63
2023/03/07 08:45:27;;;;;;;13.93;8.55;;;;;;;;;;5051706;28;20203;-63
2023/03/07 08:47:56;;;;;;;11.38;9.30;;;;;;;;;;5050820;28;20262;-65
2023/03/07 08:50:24;;;;;;;13.32;8.57;;;;;;;;;;5051307;28;20287;-65
2023/03/07 08:52:52;;;;;;;10.75;7.22;;;;;;;;;;5052371;28;20207;-66
2023/03/07 08:55:22;;;;;;;10.98;8.40;;;;;;;;;;5051754;28;20557;-66
2023/03/07 08:57:50;;;;;;;12.30;8.98;;;;;;;;;;5050914;28;20660;-66
2023/03/07 09:00:19;;;;;;;13.30;9.00;;;;;;;;;;5039146;28;20227;-66
2023/03/07 09:02:47;;;;;;;12.35;8.50;;;;;;;;;;5049509;28;20655;-67
2023/03/07 09:05:15;;;;;;;13.68;9.70;;;;;;;;;;5050577;28;20234;-67
2023/03/07 09:07:43;;;;;;;13.75;8.70;;;;;;;;;;5051085;28;20219;-68
2023/03/07 09:10:12;;;;;;;12.98;8.52;;;;;;;;;;5046806;28;20603;-67
2023/03/07 09:12:41;;;;;;;13.35;8.63;;;;;;;;;;5050023;28;20204;-67
2023/03/07 09:15:10;;;;;;;13.35;8.77;;;;;;;;;;5051196;28;20402;-67
2023/03/07 09:17:38;;;;;;;12.07;8.27;;;;;;;;;;5050227;28;20204;-68
2023/03/07 09:20:08;;;;;;;17.48;11.80;;;;;;;;;;5051423;28;20265;-68
2023/03/07 09:22:36;;;;;;;13.38;9.15;;;;;;;;;;5050975;28;20201;-68
2023/03/07 09:25:05;;;;;;;14.18;9.30;;;;;;;;;;5051590;28;20228;-68
2023/03/07 09:27:33;;;;;;;11.73;8.25;;;;;;;;;;5050856;28;20573;-67
2023/03/07 09:30:02;;;;;;;11.63;9.80;;;;;;;;;;5051422;28;20208;-67
2023/03/07 09:32:32;;;;;;;11.40;8.00;;;;;;;;;;5051785;28;20197;-68
2023/03/07 09:35:01;;;;;;;12.20;8.50;;;;;;;;;;5051785;28;20205;-68
2023/03/07 09:37:29;;;;;;;12.95;8.30;;;;;;;;;;5052112;28;20230;-68
2023/03/07 09:39:57;;;;;;;12.07;8.80;;;;;;;;;;5051172;28;20550;-68
2023/03/07 09:42:28;;;;;;;13.85;8.90;;;;;;;;;;5051407;28;20204;-66
2023/03/07 09:45:11;;;;;;;11.77;8.30;;;;;;;;;;5050310;28;20269;-66
2023/03/07 09:48:20;;;;;;;11.57;9.45;;;;;;;;;;5049119;28;20612;-65
2023/03/07 09:50:52;;;;;;;14.27;9.80;;;;;;;;;;5044007;28;20208;-66
2023/03/07 09:53:23;;;;;;;12.80;9.25;;;;;;;;;;5051590;28;20605;-66
2023/03/07 09:55:55;;;;;;;14.05;9.13;;;;;;;;;;5045550;28;20656;-67
2023/03/07 09:58:24;;;;;;;11.77;8.63;;;;;;;;;;5051793;28;20254;-68
2023/03/07 10:00:58;;;;;;;9.68;8.35;;;;;;;;;;5054861;28;20530;-69
2023/03/07 10:03:29;;;;;;;15.02;9.75;;;;;;;;;;5054123;28;20192;-66
2023/03/07 10:06:00;;;;;;;13.38;7.88;;;;;;;;;;5054661;28;20197;-65
2023/03/07 10:08:30;;;;;;;11.10;9.10;;;;;;;;;;5055036;28;20192;-66
2023/03/07 10:11:04;;;;;;;10.55;8.43;;;;;;;;;;5055555;28;20204;-67
2023/03/07 10:13:39;;;;;;;10.00;9.05;;;;;;;;;;5049356;28;20708;-65
2023/03/07 10:16:15;;;;;;;10.27;9.07;;;;;;;;;;5054649;28;20194;-66
2023/03/07 10:18:50;;;;;;;9.48;8.48;;;;;;;;;;5053824;28;20189;-66
2023/03/07 10:21:24;;;;;;;12.27;8.98;;;;;;;;;;5054877;28;20200;-66
2023/03/07 10:24:22;;;;;;;10.02;9.07;;;;;;;;;;5054118;28;20221;-69
2023/03/07 10:26:51;;;;;;;14.15;9.75;;;;;;;;;;5054915;28;20207;-68
2023/03/07 10:29:22;;;;;;;17.08;9.60;;;;;;;;;;5052911;28;20216;-66
2023/03/07 10:31:54;;;;;;;9.55;8.50;;;;;;;;;;5049634;28;20733;-67
2023/03/07 10:34:25;;;;;;;12.20;9.95;;;;;;;;;;5052842;28;20191;-67
2023/03/07 10:36:55;;;;;;;10.27;9.27;;;;;;;;;;5055004;28;20185;-67
2023/03/07 10:39:27;;;;;;;11.18;10.13;;;;;;;;;;5053749;28;20189;-67
2023/03/07 10:41:55;;;;;;;12.70;10.35;;;;;;;;;;5054756;28;20193;-67
2023/03/07 10:44:24;;;;;;;12.25;9.13;;;;;;;;;;5054037;28;20225;-69
2023/03/07 10:46:54;;;;;;;10.40;9.35;;;;;;;;;;5052430;28;20203;-69
2023/03/07 10:49:25;;;;;;;11.48;10.27;;;;;;;;;;5050169;28;20266;-69
2023/03/07 10:51:58;;;;;;;11.77;10.55;;;;;;;;;;5054418;28;20293;-69
2023/03/07 10:54:29;;;;;;;11.35;10.15;;;;;;;;;;5054036;28;20187;-69
2023/03/07 10:57:05;;;;;;;10.93;9.85;;;;;;;;;;5054488;28;20540;-69
2023/03/07 10:59:33;;;;;;;11.10;9.82;;;;;;;;;;5054272;28;20643;-69
2023/03/07 11:02:04;;;;;;;10.95;9.85;;;;;;;;;;5052225;28;20209;-67
2023/03/07 11:04:43;;;;;;;10.80;9.70;;;;;;;;;;5050667;28;20219;-69
2023/03/07 11:07:26;;;;;;;12.20;10.82;;;;;;;;;;5053990;28;20195;-67
2023/03/07 11:09:55;;;;;;;10.73;9.70;;;;;;;;;;5052111;28;20196;-67
2023/03/07 11:12:24;;;;;;;13.75;10.43;;;;;;;;;;5052191;28;20201;-67
2023/03/07 11:14:53;;;;;;;10.13;9.18;;;;;;;;;;5052948;28;20736;-65
2023/03/07 11:17:22;;;;;;;11.77;10.60;;;;;;;;;;5052956;28;20596;-66
2023/03/07 11:19:53;;;;;;;11.05;9.95;;;;;;;;;;5050636;28;20204;-66
2023/03/07 11:22:24;;;;;;;11.45;10.07;;;;;;;;;;5051456;28;20203;-64
2023/03/07 11:25:04;;;;;;;12.52;10.15;;;;;;;;;;5051763;28;20635;-66
2023/03/07 11:27:37;;;;;;;11.35;9.85;;;;;;;;;;5051055;28;20189;-66
2023/03/07 11:30:07;;;;;;;12.57;9.60;;;;;;;;;;5051035;28;20244;-67
2023/03/07 11:32:37;;;;;;;11.55;10.35;;;;;;;;;;5051643;28;20238;-68
2023/03/07 11:35:07;;;;;;;19.73;9.73;;;;;;;;;;5053573;28;20185;-65
2023/03/07 11:37:39;;;;;;;11.85;8.52;;;;;;;;;;5051844;28;20192;-68
2023/03/07 11:40:25;;;;;;;9.15;8.25;;;;;;;;;;5053499;28;20197;-66
2023/03/07 11:42:59;;;;;;;9.25;8.43;;;;;;;;;;5053737;28;20185;-68
2023/03/07 11:45:33;;;;;;;9.65;8.65;;;;;;;;;;5054107;28;20208;-67
2023/03/07 11:48:06;;;;;;;10.00;9.00;;;;;;;;;;5053768;28;20642;-67
2023/03/07 11:50:35;;;;;;;9.60;8.80;;;;;;;;;;5052576;28;20345;-67
2023/03/07 11:53:18;;;;;;;10.77;9.70;;;;;;;;;;5052228;28;20215;-66
2023/03/07 11:55:51;;;;;;;13.18;8.98;;;;;;;;;;5052982;28;20360;-68
2023/03/07 11:58:34;;;;;;;11.50;9.25;;;;;;;;;;5051350;28;20581;-68
2023/03/07 12:01:07;;;;;;;14.32;9.25;;;;;;;;;;5048814;28;20700;-68
2023/03/07 12:03:45;;;;;;;27.40;10.95;;;;;;;;;;5049297;28;20199;-68
2023/03/07 12:06:18;;;;;;;9.70;8.70;;;;;;;;;;5052714;28;20216;-68
2023/03/07 12:08:54;;;;;;;11.43;9.73;;;;;;;;;;5051141;28;20554;-68
2023/03/07 12:11:34;;;;;;;26.98;11.93;;;;;;;;;;5054638;28;20223;-68
2023/03/07 12:14:07;;;;;;;10.13;9.13;;;;;;;;;;5054119;28;20192;-69
2023/03/07 12:16:40;;;;;;;9.77;8.88;;;;;;;;;;5055169;28;20546;-68
2023/03/07 12:19:18;;;;;;;12.25;10.45;;;;;;;;;;5051803;28;20212;-68
2023/03/07 12:22:01;;;;;;;9.05;8.13;;;;;;;;;;5051908;28;20191;-68
2023/03/07 12:24:32;;;;;;;10.25;9.27;;;;;;;;;;5050338;28;20217;-69
2023/03/07 12:27:04;;;;;;;10.40;9.45;;;;;;;;;;5052699;28;20639;-68
2023/03/07 12:29:35;;;;;;;11.15;10.05;;;;;;;;;;5051037;28;20586;-69
2023/03/07 12:32:05;;;;;;;12.55;11.35;;;;;;;;;;5051823;28;20228;-68
2023/03/07 12:34:37;;;;;;;12.38;10.50;;;;;;;;;;5049605;28;21099;-69
2023/03/07 12:37:07;;;;;;;12.32;11.18;;;;;;;;;;5052117;28;20193;-66
2023/03/07 12:39:42;;;;;;;11.70;10.70;;;;;;;;;;5050911;28;21282;-67
2023/03/07 12:42:15;;;;;;;10.73;9.82;;;;;;;;;;5052579;28;20188;-69
2023/03/07 12:44:46;;;;;;;10.27;9.30;;;;;;;;;;5051406;28;20189;-68
2023/03/07 12:47:17;;;;;;;9.85;9.00;;;;;;;;;;5049399;28;20616;-68
2023/03/07 12:49:50;;;;;;;10.40;9.60;;;;;;;;;;5047035;28;20211;-69
2023/03/07 12:52:25;;;;;;;9.98;9.13;;;;;;;;;;5051017;28;20582;-69
2023/03/07 12:54:57;;;;;;;10.50;9.35;;;;;;;;;;5053307;28;20253;-68
2023/03/07 12:57:29;;;;;;;11.30;10.18;;;;;;;;;;5051715;28;20204;-67
2023/03/07 12:59:59;;;;;;;12.73;9.85;;;;;;;;;;5052220;28;20192;-67
2023/03/07 13:02:29;;;;;;;12.10;10.90;;;;;;;;;;5051272;28;20200;-67
2023/03/07 13:04:59;;;;;;;10.43;9.52;;;;;;;;;;5055114;28;20710;-67
2023/03/07 13:07:28;;;;;;;10.13;9.23;;;;;;;;;;5053630;28;20196;-68
2023/03/07 13:09:57;;;;;;;10.65;9.63;;;;;;;;;;5052288;28;20209;-68
2023/03/07 13:12:34;;;;;;;10.55;9.55;;;;;;;;;;5046228;28;20269;-69
2023/03/07 13:15:04;;;;;;;11.18;8.40;;;;;;;;;;5052610;28;20197;-69
2023/03/07 13:17:51;;;;;;;9.52;8.73;;;;;;;;;;5050908;28;20205;-67
2023/03/07 13:20:40;;;;;;;9.60;8.75;;;;;;;;;;5052454;28;20204;-67
2023/03/07 13:23:28;;;;;;;9.70;9.00;;;;;;;;;;5025698;28;20228;-69
2023/03/07 13:25:58;;;;;;;9.55;8.75;;;;;;;;;;5066653;28;20212;-69
2023/03/07 13:28:41;;;;;;;10.50;9.80;;;;;;;;;;5051771;28;20203;-69
2023/03/07 13:31:38;;;;;;;9.27;8.52;;;;;;;;;;5050717;28;20600;-67
2023/03/07 13:34:40;;;;;;;10.13;9.13;;;;;;;;;;5050161;28;20724;-69
2023/03/07 13:37:27;;;;;;;9.43;8.43;;;;;;;;;;5052719;28;20671;-68
2023/03/07 13:40:05;;;;;;;8.00;7.40;;;;;;;;;;5060667;28;20221;-68
2023/03/07 13:42:47;;;;;;;8.85;8.05;;;;;;;;;;5064881;28;20681;-68
2023/03/07 13:45:34;;;;;;;8.80;8.10;;;;;;;;;;5065431;28;20220;-67
2023/03/07 13:48:03;;;;;;;10.50;9.50;;;;;;;;;;5073175;28;20613;-67
2023/03/07 13:50:39;;;;;;;9.85;9.15;;;;;;;;;;5076698;28;20269;-67
2023/03/07 13:53:12;;;;;;;9.20;8.50;;;;;;;;;;5075251;28;20188;-67
2023/03/07 13:55:45;;;;;;;8.52;7.85;;;;;;;;;;5075592;28;20184;-68
2023/03/07 13:58:17;;;;;;;8.77;7.88;;;;;;;;;;5072509;28;20735;-68
2023/03/07 14:00:51;;;;;;;9.18;8.43;;;;;;;;;;5064150;28;20204;-68
2023/03/07 14:03:31;;;;;;;10.80;7.88;;;;;;;;;;5054268;28;20200;-67
2023/03/07 14:06:01;;;;;;;9.20;8.40;;;;;;;;;;5054285;28;20212;-67
2023/03/07 14:08:31;;;;;;;8.75;8.05;;;;;;;;;;5055840;28;20625;-67
2023/03/07 14:11:00;;;;;;;10.68;9.40;;;;;;;;;;5054854;28;20575;-67
2023/03/07 14:13:36;;;;;;;8.27;7.63;;;;;;;;;;5051631;28;20223;-68
2023/03/07 14:16:14;;;;;;;9.07;8.27;;;;;;;;;;5057942;28;20218;-67
2023/03/07 14:18:49;;;;;;;8.30;7.60;;;;;;;;;;5055105;28;20585;-67
2023/03/07 14:21:20;;;;;;;9.32;8.38;;;;;;;;;;5055781;28;20218;-67
2023/03/07 14:23:56;;;;;;;8.50;7.70;;;;;;;;;;5054663;28;20228;-68
2023/03/07 14:26:26;;;;;;;8.60;7.80;;;;;;;;;;5056426;28;20216;-67
2023/03/07 14:28:58;;;;;;;9.18;8.48;;;;;;;;;;5054436;28;20253;-67
2023/03/07 14:31:28;;;;;;;10.27;9.35;;;;;;;;;;5051732;28;20232;-67
2023/03/07 14:33:57;;;;;;;9.48;8.57;;;;;;;;;;5054964;28;20200;-67
2023/03/07 14:36:26;;;;;;;8.73;8.00;;;;;;;;;;5051926;28;20250;-67
2023/03/07 14:38:56;;;;;;;9.13;8.32;;;;;;;;;;5061465;28;20605;-67
2023/03/07 14:41:40;;;;;;;12.13;8.70;;;;;;;;;;5075157;28;20208;-67
2023/03/07 14:44:20;;;;;;;9.55;8.68;;;;;;;;;;5061547;28;20192;-67
2023/03/07 14:46:58;;;;;;;9.68;8.77;;;;;;;;;;5053575;28;20231;-67